createdAt,value
2022-08-02T00:00:55.676Z,14.24
2022-08-02T00:03:24.684Z,14.07
2022-08-02T00:05:53.055Z,13.99
2022-08-02T00:08:20.015Z,13.87
2022-08-02T00:10:46.497Z,13.79
2022-08-02T00:13:12.911Z,13.74
2022-08-02T00:15:39.371Z,13.64
2022-08-02T00:18:06.272Z,13.66
2022-08-02T00:20:32.727Z,13.65
2022-08-02T00:23:00.867Z,13.60
2022-08-02T00:25:27.409Z,13.58
2022-08-02T00:27:53.878Z,13.56
2022-08-02T00:30:20.400Z,13.65
2022-08-02T00:32:46.857Z,13.63
2022-08-02T00:35:13.302Z,13.62
2022-08-02T00:37:41.548Z,13.61
2022-08-02T00:40:09.743Z,13.55
2022-08-02T00:42:36.399Z,13.50
2022-08-02T00:45:04.176Z,13.53
2022-08-02T00:47:31.088Z,13.48
2022-08-02T00:49:57.523Z,13.53
2022-08-02T00:52:25.347Z,13.53
2022-08-02T00:54:51.827Z,13.57
2022-08-02T00:57:18.295Z,13.49
2022-08-02T00:59:44.759Z,13.53
2022-08-02T01:02:11.782Z,13.58
2022-08-02T01:04:38.579Z,13.63
2022-08-02T01:07:12.129Z,13.61
2022-08-02T01:09:40.167Z,13.60
2022-08-02T01:12:10.905Z,13.51
2022-08-02T01:14:38.405Z,13.44
2022-08-02T01:17:16.155Z,13.36
2022-08-02T01:19:57.429Z,13.32
2022-08-02T01:23:02.090Z,13.18
2022-08-02T01:25:47.929Z,13.11
2022-08-02T01:28:26.513Z,13.11
2022-08-02T01:31:10.493Z,13.04
2022-08-02T01:33:44.128Z,13.11
2022-08-02T01:36:12.859Z,13.03
2022-08-02T01:38:44.925Z,12.97
2022-08-02T01:41:26.087Z,13.01
2022-08-02T01:43:56.967Z,12.92
2022-08-02T01:46:26.678Z,12.88
2022-08-02T01:48:56.167Z,12.86
2022-08-02T01:51:45.078Z,12.87
2022-08-02T01:54:15.333Z,12.82
2022-08-02T01:56:43.101Z,12.76
2022-08-02T01:59:13.858Z,12.65
2022-08-02T02:01:41.592Z,12.54
2022-08-02T02:04:09.806Z,12.49
2022-08-02T02:06:37.871Z,12.57
2022-08-02T02:09:06.441Z,12.64
2022-08-02T02:12:11.630Z,12.69
2022-08-02T02:14:21.922Z,12.75
2022-08-02T02:16:49.479Z,12.64
2022-08-02T02:19:21.214Z,12.63
2022-08-02T02:21:48.161Z,12.58
2022-08-02T02:24:14.658Z,12.45
2022-08-02T02:26:49.308Z,12.40
2022-08-02T02:29:21.934Z,12.40
2022-08-02T02:31:50.776Z,12.46
2022-08-02T02:34:26.425Z,12.48
2022-08-02T02:36:53.884Z,12.51
2022-08-02T02:39:24.042Z,12.46
2022-08-02T02:41:53.101Z,12.35
2022-08-02T02:44:21.854Z,12.46
2022-08-02T02:46:52.703Z,12.50
2022-08-02T02:49:21.346Z,12.54
2022-08-02T02:51:50.474Z,12.59
2022-08-02T02:54:32.848Z,12.62
2022-08-02T02:57:03.699Z,12.70
2022-08-02T02:59:32.145Z,12.60
2022-08-02T03:01:59.289Z,12.45
2022-08-02T03:04:56.293Z,12.36
2022-08-02T03:07:15.851Z,12.25
2022-08-02T03:09:42.579Z,12.22
2022-08-02T03:12:09.983Z,12.11
2022-08-02T03:14:42.720Z,12.11
2022-08-02T03:17:09.225Z,12.00
2022-08-02T03:19:35.724Z,11.97
2022-08-02T03:22:02.867Z,11.90
2022-08-02T03:24:40.173Z,11.92
2022-08-02T03:27:06.640Z,11.87
2022-08-02T03:29:34.823Z,11.86
2022-08-02T03:32:02.742Z,11.92
2022-08-02T03:34:29.824Z,11.98
2022-08-02T03:36:58.069Z,12.04
2022-08-02T03:39:32.334Z,12.00
2022-08-02T03:42:03.314Z,11.98
2022-08-02T03:44:31.768Z,12.15
2022-08-02T03:46:58.746Z,12.30
2022-08-02T03:49:26.436Z,12.39
2022-08-02T03:51:54.635Z,12.47
2022-08-02T03:54:22.646Z,12.41
2022-08-02T03:57:01.147Z,12.38
2022-08-02T03:59:41.069Z,12.39
2022-08-02T04:02:07.846Z,12.38
2022-08-02T04:04:34.452Z,12.42
2022-08-02T04:07:02.861Z,12.49
2022-08-02T04:09:34.208Z,12.47
2022-08-02T04:12:01.171Z,12.45
2022-08-02T04:14:29.327Z,12.52
2022-08-02T04:17:02.880Z,12.51
2022-08-02T04:19:36.469Z,12.49
2022-08-02T04:22:05.133Z,12.37
2022-08-02T04:24:41.282Z,12.35
2022-08-02T04:27:49.966Z,12.36
2022-08-02T04:29:57.738Z,12.33
2022-08-02T04:32:25.376Z,12.35
2022-08-02T04:35:18.189Z,12.46
2022-08-02T04:37:39.057Z,12.61
2022-08-02T04:40:25.591Z,12.62
2022-08-02T04:42:53.840Z,12.56
2022-08-02T04:45:21.904Z,12.53
2022-08-02T04:48:01.818Z,12.63
2022-08-02T04:50:31.055Z,12.70
2022-08-02T04:52:57.467Z,12.83
2022-08-02T04:55:28.990Z,12.93
2022-08-02T04:57:57.437Z,13.05
2022-08-02T05:00:25.365Z,13.12
2022-08-02T05:02:52.585Z,13.18
2022-08-02T05:05:19.251Z,13.20
2022-08-02T05:07:45.795Z,13.19
2022-08-02T05:10:12.346Z,13.28
2022-08-02T05:12:39.380Z,13.37
2022-08-02T05:15:06.700Z,13.50
2022-08-02T05:17:36.743Z,13.48
2022-08-02T05:20:06.842Z,13.36
2022-08-02T05:22:33.314Z,13.33
2022-08-02T05:25:02.162Z,13.39
2022-08-02T05:27:29.383Z,13.29
2022-08-02T05:29:57.698Z,13.34
2022-08-02T05:32:25.056Z,13.20
2022-08-02T05:35:19.843Z,13.20
2022-08-02T05:37:48.170Z,13.20
2022-08-02T05:40:15.383Z,13.20
2022-08-02T05:42:42.827Z,13.28
2022-08-02T05:45:09.978Z,13.34
2022-08-02T05:47:36.949Z,13.41
2022-08-02T05:50:05.905Z,13.51
2022-08-02T05:53:15.418Z,13.62
2022-08-02T05:55:53.392Z,13.76
2022-08-02T05:58:50.028Z,13.77
2022-08-02T06:01:27.252Z,13.86
2022-08-02T06:03:57.387Z,13.99
2022-08-02T06:06:26.344Z,14.04
2022-08-02T06:09:00.921Z,14.04
2022-08-02T06:11:35.916Z,14.23
2022-08-02T06:14:04.390Z,14.23
2022-08-02T06:16:32.528Z,14.33
2022-08-02T06:19:01.199Z,14.48
2022-08-02T06:22:31.471Z,14.64
2022-08-02T06:24:18.365Z,14.79
2022-08-02T06:26:45.632Z,14.77
2022-08-02T06:29:12.866Z,14.89
2022-08-02T06:31:41.428Z,15.03
2022-08-02T06:34:11.756Z,15.23
2022-08-02T06:36:59.781Z,15.16
2022-08-02T06:39:48.784Z,15.21
2022-08-02T06:42:27.916Z,15.29
2022-08-02T06:44:58.128Z,15.36
2022-08-02T06:47:26.609Z,15.50
2022-08-02T06:49:54.414Z,15.77
2022-08-02T06:52:32.978Z,15.76
2022-08-02T06:55:02.495Z,15.73
2022-08-02T06:57:31.820Z,15.81
2022-08-02T07:00:02.107Z,15.93
2022-08-02T07:02:30.238Z,16.07
2022-08-02T07:04:57.297Z,16.18
2022-08-02T07:07:24.507Z,16.25
2022-08-02T07:09:56.921Z,16.44
2022-08-02T07:12:33.064Z,16.50
2022-08-02T07:15:02.906Z,16.78
2022-08-02T07:17:30.613Z,16.78
2022-08-02T07:19:58.127Z,17.01
2022-08-02T07:22:27.028Z,17.17
2022-08-02T07:24:55.570Z,17.22
2022-08-02T07:27:22.430Z,17.42
2022-08-02T07:29:48.986Z,17.57
2022-08-02T07:32:20.339Z,17.74
2022-08-02T07:34:51.138Z,18.02
2022-08-02T07:37:35.183Z,18.36
2022-08-02T07:40:14.719Z,18.41
2022-08-02T07:42:44.919Z,18.73
2022-08-02T07:45:12.604Z,19.03
2022-08-02T07:47:43.855Z,19.25
2022-08-02T07:50:12.203Z,19.46
2022-08-02T07:52:42.730Z,19.43
2022-08-02T07:55:11.975Z,19.40
2022-08-02T07:57:44.069Z,19.74
2022-08-02T08:00:13.574Z,19.96
2022-08-02T08:02:40.219Z,20.21
2022-08-02T08:05:07.334Z,20.44
2022-08-02T08:07:34.857Z,20.62
2022-08-02T08:10:04.117Z,20.37
2022-08-02T08:12:32.626Z,20.43
2022-08-02T08:14:59.346Z,20.51
2022-08-02T08:17:26.408Z,20.75
2022-08-02T08:19:53.244Z,20.83
2022-08-02T08:22:20.601Z,20.73
2022-08-02T08:24:48.116Z,20.58
2022-08-02T08:27:15.645Z,20.66
2022-08-02T08:29:43.057Z,20.88
2022-08-02T08:32:15.689Z,21.06
2022-08-02T08:34:43.140Z,21.24
2022-08-02T08:37:09.619Z,21.37
2022-08-02T08:39:57.154Z,21.44
2022-08-02T08:42:31.449Z,21.64
2022-08-02T08:44:59.208Z,21.91
2022-08-02T08:47:35.130Z,21.76
2022-08-02T08:50:17.866Z,21.74
2022-08-02T08:52:49.758Z,21.89
2022-08-02T08:55:17.046Z,22.06
2022-08-02T08:57:44.015Z,21.95
2022-08-02T09:00:16.836Z,21.93
2022-08-02T09:02:44.336Z,22.15
2022-08-02T09:05:12.967Z,22.42
2022-08-02T09:07:41.963Z,22.64
2022-08-02T09:10:34.953Z,22.66
2022-08-02T09:13:31.208Z,22.47
2022-08-02T09:16:12.417Z,22.51
2022-08-02T09:18:43.800Z,22.60
2022-08-02T09:21:11.217Z,22.82
2022-08-02T09:23:42.692Z,22.89
2022-08-02T09:26:13.132Z,22.89
2022-08-02T09:28:42.419Z,22.90
2022-08-02T09:31:20.808Z,22.97
2022-08-02T09:33:52.793Z,23.07
2022-08-02T09:36:19.334Z,23.26
2022-08-02T09:39:04.265Z,23.36
2022-08-02T09:41:33.735Z,23.35
2022-08-02T09:44:04.659Z,23.54
2022-08-02T09:46:36.229Z,23.79
2022-08-02T09:49:05.363Z,23.74
2022-08-02T09:51:34.888Z,23.70
2022-08-02T09:54:10.059Z,23.71
2022-08-02T09:56:44.621Z,23.84
2022-08-02T09:59:11.993Z,23.63
2022-08-02T10:01:39.101Z,23.80
2022-08-02T10:04:15.724Z,24.03
2022-08-02T10:06:49.921Z,24.16
2022-08-02T10:09:17.511Z,24.23
2022-08-02T10:11:47.354Z,24.32
2022-08-02T10:14:14.057Z,24.28
2022-08-02T10:16:43.367Z,24.34
2022-08-02T10:19:10.619Z,24.68
2022-08-02T10:21:46.764Z,24.33
2022-08-02T10:24:16.423Z,24.48
2022-08-02T10:26:45.270Z,24.64
2022-08-02T10:29:24.331Z,24.95
2022-08-02T10:31:59.043Z,25.12
2022-08-02T10:34:51.226Z,25.05
2022-08-02T10:37:19.380Z,24.82
2022-08-02T10:39:50.707Z,24.82
2022-08-02T10:42:48.290Z,24.77
2022-08-02T10:45:17.360Z,24.88
2022-08-02T10:48:03.394Z,25.29
2022-08-02T10:50:52.887Z,25.38
2022-08-02T10:53:26.856Z,25.34
2022-08-02T10:55:59.357Z,25.33
2022-08-02T10:58:30.251Z,24.95
2022-08-02T11:00:58.099Z,24.95
2022-08-02T11:03:41.340Z,25.12
2022-08-02T11:06:25.263Z,25.40
2022-08-02T11:09:33.518Z,25.49
2022-08-02T11:12:15.547Z,25.30
2022-08-02T11:14:44.593Z,25.54
2022-08-02T11:17:14.276Z,25.47
2022-08-02T11:20:29.335Z,25.47
2022-08-02T11:23:44.438Z,25.73
2022-08-02T11:26:30.718Z,25.78
2022-08-02T11:28:59.304Z,25.73
2022-08-02T11:31:26.863Z,26.02
2022-08-02T11:33:53.729Z,26.23
2022-08-02T11:36:20.212Z,26.39
2022-08-02T11:38:49.788Z,26.40
2022-08-02T11:41:46.724Z,26.35
2022-08-02T11:44:06.913Z,26.35
2022-08-02T11:46:33.518Z,26.60
2022-08-02T11:49:15.938Z,26.69
2022-08-02T11:52:01.909Z,26.81
2022-08-02T11:54:35.337Z,27.08
2022-08-02T11:57:20.319Z,27.29
2022-08-02T11:59:55.466Z,27.07
2022-08-02T12:02:28.936Z,27.17
2022-08-02T12:04:58.955Z,27.08
2022-08-02T12:07:35.381Z,27.08
2022-08-02T12:10:18.680Z,26.84
2022-08-02T12:13:00.885Z,26.52
2022-08-02T12:15:33.077Z,26.30
2022-08-02T12:18:19.599Z,26.42
2022-08-02T12:20:46.225Z,26.44
2022-08-02T12:23:13.102Z,26.42
2022-08-02T12:25:39.815Z,26.56
2022-08-02T12:28:22.773Z,26.76
2022-08-02T12:30:51.981Z,26.83
2022-08-02T12:33:18.889Z,26.96
2022-08-02T12:35:45.377Z,26.90
2022-08-02T12:38:12.387Z,26.96
2022-08-02T12:40:39.038Z,26.92
2022-08-02T12:43:08.554Z,26.69
2022-08-02T12:45:56.488Z,26.91
2022-08-02T12:48:37.765Z,26.98
2022-08-02T12:51:50.582Z,27.01
2022-08-02T12:54:18.131Z,26.64
2022-08-02T12:56:45.418Z,26.77
2022-08-02T12:59:12.403Z,26.74
2022-08-02T13:01:38.918Z,26.97
2022-08-02T13:04:09.000Z,27.27
2022-08-02T13:06:44.092Z,27.36
2022-08-02T13:09:13.514Z,27.56
2022-08-02T13:11:43.406Z,27.76
2022-08-02T13:14:10.277Z,27.92
2022-08-02T13:16:37.083Z,27.84
2022-08-02T13:19:03.554Z,28.02
2022-08-02T13:21:31.946Z,28.03
2022-08-02T13:24:33.129Z,27.80
2022-08-02T13:26:55.175Z,27.95
2022-08-02T13:29:21.605Z,28.02
2022-08-02T13:31:48.133Z,28.02
2022-08-02T13:34:16.518Z,28.18
2022-08-02T13:36:43.055Z,28.21
2022-08-02T13:39:10.336Z,28.17
2022-08-02T13:41:37.007Z,28.28
2022-08-02T13:44:09.903Z,28.38
2022-08-02T13:46:39.690Z,28.52
2022-08-02T13:49:17.935Z,28.12
2022-08-02T13:51:46.907Z,28.07
2022-08-02T13:54:13.429Z,27.61
2022-08-02T13:56:39.830Z,27.46
2022-08-02T13:59:55.073Z,27.38
2022-08-02T14:01:54.279Z,27.32
2022-08-02T14:04:20.873Z,27.52
2022-08-02T14:06:47.334Z,27.54
2022-08-02T14:09:16.864Z,27.62
2022-08-02T14:11:44.769Z,27.83
2022-08-02T14:14:16.595Z,27.78
2022-08-02T14:16:47.313Z,27.83
2022-08-02T14:19:16.785Z,28.20
2022-08-02T14:21:47.993Z,28.35
2022-08-02T14:24:19.706Z,27.98
2022-08-02T14:26:46.874Z,27.82
2022-08-02T14:29:14.414Z,27.82
2022-08-02T14:31:44.309Z,28.09
2022-08-02T14:34:12.135Z,28.25
2022-08-02T14:36:39.089Z,28.42
2022-08-02T14:39:05.956Z,28.38
2022-08-02T14:41:33.975Z,28.55
2022-08-02T14:44:20.294Z,28.44
2022-08-02T14:46:46.865Z,28.48
2022-08-02T14:49:14.456Z,28.75
2022-08-02T14:51:51.423Z,28.81
2022-08-02T14:54:18.285Z,28.46
2022-08-02T14:56:45.378Z,28.43
2022-08-02T14:59:14.735Z,28.36
2022-08-02T15:01:41.636Z,28.41
2022-08-02T15:04:08.148Z,28.33
2022-08-02T15:06:34.689Z,28.45
2022-08-02T15:09:01.950Z,28.56
2022-08-02T15:11:28.593Z,28.62
2022-08-02T15:13:55.089Z,28.39
2022-08-02T15:16:47.267Z,28.60
2022-08-02T15:19:13.204Z,28.62
2022-08-02T15:21:42.000Z,28.62
2022-08-02T15:24:21.326Z,28.64
2022-08-02T15:26:50.121Z,28.45
2022-08-02T15:29:17.412Z,28.36
2022-08-02T15:31:44.299Z,28.56
2022-08-02T15:34:10.970Z,28.41
2022-08-02T15:36:37.584Z,28.39
2022-08-02T15:39:04.816Z,28.59
2022-08-02T15:41:31.985Z,28.66
2022-08-02T15:44:00.693Z,28.69
2022-08-02T15:46:32.260Z,28.69
2022-08-02T15:49:00.136Z,28.62
2022-08-02T15:51:30.083Z,28.38
2022-08-02T15:53:56.594Z,28.49
2022-08-02T15:56:24.605Z,28.39
2022-08-02T15:58:51.735Z,28.42
2022-08-02T16:01:20.900Z,28.59
2022-08-02T16:03:47.402Z,28.73
2022-08-02T16:06:15.498Z,28.73
2022-08-02T16:08:53.352Z,28.55
2022-08-02T16:11:21.105Z,28.52
2022-08-02T16:13:53.313Z,28.30
2022-08-02T16:16:34.861Z,28.05
2022-08-02T16:19:30.668Z,27.99
2022-08-02T16:22:14.843Z,27.68
2022-08-02T16:24:41.966Z,27.72
2022-08-02T16:27:08.496Z,28.00
2022-08-02T16:29:38.939Z,27.95
2022-08-02T16:32:06.235Z,27.86
2022-08-02T16:34:50.350Z,27.83
2022-08-02T16:37:19.545Z,27.64
2022-08-02T16:39:45.974Z,27.88
2022-08-02T16:42:12.469Z,27.98
2022-08-02T16:44:43.384Z,27.95
2022-08-02T16:47:20.153Z,27.98
2022-08-02T16:50:10.258Z,27.79
2022-08-02T16:52:37.483Z,27.61
2022-08-02T16:55:10.223Z,27.53
2022-08-02T17:00:53.613Z,27.66
2022-08-02T17:03:20.178Z,27.77
2022-08-02T17:05:55.809Z,27.80
2022-08-02T17:08:31.677Z,27.84
2022-08-02T17:10:58.813Z,27.86
2022-08-02T17:13:32.205Z,27.64
2022-08-02T17:16:20.270Z,27.57
2022-08-02T17:18:54.646Z,27.24
2022-08-02T17:21:21.331Z,27.10
2022-08-02T17:24:04.954Z,26.95
2022-08-02T17:26:35.438Z,26.82
2022-08-02T17:29:15.620Z,26.64
2022-08-02T17:32:05.281Z,26.47
2022-08-02T17:34:32.017Z,26.36
2022-08-02T17:37:00.171Z,26.30
2022-08-02T17:39:33.893Z,26.18
2022-08-02T17:42:09.199Z,26.21
2022-08-02T17:47:31.048Z,25.99
2022-08-02T17:49:58.231Z,25.93
2022-08-02T17:52:50.201Z,25.89
2022-08-02T17:55:14.604Z,25.78
2022-08-02T17:57:57.347Z,25.76
2022-08-02T18:00:34.965Z,25.70
2022-08-02T18:03:06.196Z,25.72
2022-08-02T18:05:40.055Z,25.74
2022-08-02T18:08:21.209Z,25.72
2022-08-02T18:10:48.131Z,25.70
2022-08-02T18:13:14.911Z,25.65
2022-08-02T18:15:41.350Z,25.64
2022-08-02T18:18:12.553Z,25.62
2022-08-02T18:20:39.019Z,25.59
2022-08-02T18:23:06.323Z,25.61
2022-08-02T18:25:46.069Z,25.60
2022-08-02T18:28:15.353Z,25.61
2022-08-02T18:30:42.558Z,25.61
2022-08-02T18:33:58.938Z,25.56
2022-08-02T18:35:55.997Z,25.49
2022-08-02T18:38:24.765Z,25.45
2022-08-02T18:40:52.076Z,25.43
2022-08-02T18:43:19.917Z,25.41
2022-08-02T18:46:06.755Z,25.39
2022-08-02T18:48:46.172Z,25.38
2022-08-02T18:51:14.729Z,25.34
2022-08-02T18:53:42.834Z,25.31
2022-08-02T18:56:19.857Z,25.26
2022-08-02T18:58:55.299Z,25.22
2022-08-02T19:01:32.724Z,25.14
2022-08-02T19:04:03.132Z,25.05
2022-08-02T19:06:30.804Z,24.96
2022-08-02T19:14:31.384Z,24.62
2022-08-02T19:17:11.636Z,24.49
2022-08-02T19:19:47.059Z,24.37
2022-08-02T19:22:18.199Z,24.30
2022-08-02T19:25:01.038Z,24.25
2022-08-02T19:27:32.655Z,24.23
2022-08-02T19:30:07.482Z,24.18
2022-08-02T19:32:42.261Z,24.09
2022-08-02T19:35:30.830Z,23.97
2022-08-02T19:38:09.548Z,23.82
2022-08-02T19:40:42.034Z,23.76
2022-08-02T19:44:23.831Z,23.71
2022-08-02T19:45:57.393Z,23.65
2022-08-02T19:51:12.838Z,23.57
2022-08-02T19:53:47.343Z,23.56
2022-08-02T19:59:13.119Z,23.50
2022-08-02T20:01:44.802Z,23.43
2022-08-02T20:04:14.016Z,23.37
2022-08-02T20:06:45.741Z,23.29
2022-08-02T20:09:16.514Z,23.20
2022-08-02T20:11:44.452Z,23.13
2022-08-02T20:14:11.099Z,23.10
2022-08-02T20:16:39.857Z,23.04
2022-08-02T20:19:08.425Z,23.01
2022-08-02T20:21:38.186Z,22.98
2022-08-02T20:24:10.749Z,22.92
2022-08-02T20:26:47.949Z,22.91
2022-08-02T20:29:17.550Z,22.89
2022-08-02T20:32:03.986Z,22.86
2022-08-02T20:34:31.173Z,22.83
2022-08-02T20:36:57.592Z,22.81
2022-08-02T20:39:43.069Z,22.80
2022-08-02T20:42:23.254Z,22.72
2022-08-02T20:47:40.582Z,22.64
2022-08-02T20:53:24.013Z,22.56
2022-08-02T20:55:54.326Z,22.54
2022-08-02T21:01:08.294Z,22.47
2022-08-02T21:03:39.072Z,22.42
2022-08-02T21:06:06.559Z,22.36
2022-08-02T21:08:34.837Z,22.32
2022-08-02T21:11:01.449Z,22.26
2022-08-02T21:13:46.515Z,22.15
2022-08-02T21:16:18.281Z,22.11
2022-08-02T21:18:46.959Z,22.06
2022-08-02T21:21:14.773Z,22.02
2022-08-02T21:23:48.390Z,21.99
2022-08-02T21:26:15.936Z,21.93
2022-08-02T21:28:46.534Z,21.89
2022-08-02T21:31:18.332Z,21.87
2022-08-02T21:33:56.826Z,21.82
2022-08-02T21:36:33.813Z,21.76
2022-08-02T21:39:05.944Z,21.71
2022-08-02T21:41:39.658Z,21.68
2022-08-02T21:44:15.900Z,21.64
2022-08-02T21:46:44.499Z,21.56
2022-08-02T21:49:12.673Z,21.46
2022-08-02T21:51:39.729Z,21.44
2022-08-02T21:54:17.752Z,21.40
2022-08-02T21:56:46.642Z,21.35
2022-08-02T21:59:16.866Z,21.31
2022-08-02T22:01:52.419Z,21.21
2022-08-02T22:04:19.778Z,21.13
2022-08-02T22:06:46.989Z,21.09
2022-08-02T22:09:43.655Z,21.10
2022-08-02T22:12:10.149Z,21.12
2022-08-02T22:14:39.611Z,21.05
2022-08-02T22:17:08.741Z,21.03
2022-08-02T22:19:36.208Z,21.02
2022-08-02T22:22:03.466Z,20.96
2022-08-02T22:24:30.637Z,20.92
2022-08-02T22:26:57.713Z,20.89
2022-08-02T22:29:25.157Z,20.88
2022-08-02T22:31:52.251Z,20.84
2022-08-02T22:34:37.065Z,20.82
2022-08-02T22:37:05.864Z,20.82
2022-08-02T22:39:34.446Z,20.77
2022-08-02T22:42:06.268Z,20.73
2022-08-02T22:44:45.155Z,20.72
2022-08-02T22:47:14.526Z,20.70
2022-08-02T22:49:51.462Z,20.70
2022-08-02T22:52:21.404Z,20.66
2022-08-02T22:54:48.124Z,20.59
2022-08-02T22:57:14.554Z,20.58
2022-08-02T22:58:47.003Z,24.85
2022-08-02T22:58:49.437Z,27.57
2022-08-02T22:58:50.980Z,26.06
2022-08-02T22:58:56.232Z,22.67
2022-08-02T22:58:56.350Z,22.61
2022-08-02T22:58:56.731Z,22.52
2022-08-02T22:58:57.897Z,24.74
2022-08-02T22:59:05.991Z,23.54
2022-08-02T22:59:07.696Z,23.60
2022-08-02T22:59:41.566Z,20.53
2022-08-02T23:02:09.777Z,20.55
2022-08-02T23:04:37.451Z,20.52
2022-08-02T23:07:04.346Z,20.53
2022-08-02T23:09:32.490Z,20.47
2022-08-02T23:11:58.998Z,20.46
2022-08-02T23:14:25.975Z,20.43
2022-08-02T23:17:11.165Z,20.40
2022-08-02T23:19:52.987Z,20.35
2022-08-02T23:22:29.801Z,20.32
2022-08-02T23:25:00.647Z,20.28
2022-08-02T23:27:28.085Z,20.26
2022-08-02T23:29:54.712Z,20.26
2022-08-02T23:32:22.977Z,20.22
2022-08-02T23:34:53.400Z,20.21
2022-08-02T23:37:19.844Z,20.17
2022-08-02T23:39:46.310Z,20.14
2022-08-02T23:42:12.754Z,20.12
2022-08-02T23:44:39.339Z,20.10
2022-08-02T23:47:06.152Z,20.08
2022-08-02T23:49:32.906Z,20.07
2022-08-02T23:52:01.888Z,20.04
2022-08-02T23:54:29.209Z,20.02
2022-08-02T23:56:55.777Z,20.00
2022-08-02T23:59:23.434Z,19.96
